sensor_id;sensor_type;location;lat;lon;timestamp;temperature;humidity
43320;DHT22;28914;48.722;9.332;2022-11-20T00:04:53;9.80;90.00
43320;DHT22;28914;48.722;9.332;2022-11-20T00:10:12;9.70;90.00
43320;DHT22;28914;48.722;9.332;2022-11-20T00:15:32;9.60;90.00
43320;DHT22;28914;48.722;9.332;2022-11-20T00:20:51;9.50;90.00
43320;DHT22;28914;48.722;9.332;2022-11-20T00:26:13;9.40;90.10
43320;DHT22;28914;48.722;9.332;2022-11-20T00:31:34;9.30;90.10
43320;DHT22;28914;48.722;9.332;2022-11-20T00:36:54;9.20;90.10
43320;DHT22;28914;48.722;9.332;2022-11-20T00:42:13;9.00;90.20
43320;DHT22;28914;48.722;9.332;2022-11-20T00:47:33;8.90;90.40
43320;DHT22;28914;48.722;9.332;2022-11-20T00:52:52;8.90;90.60
43320;DHT22;28914;48.722;9.332;2022-11-20T00:58:11;8.90;90.70
43320;DHT22;28914;48.722;9.332;2022-11-20T01:03:35;8.80;90.80
43320;DHT22;28914;48.722;9.332;2022-11-20T01:08:57;8.90;91.10
43320;DHT22;28914;48.722;9.332;2022-11-20T01:14:19;8.90;91.10
43320;DHT22;28914;48.722;9.332;2022-11-20T01:19:39;9.00;91.20
43320;DHT22;28914;48.722;9.332;2022-11-20T01:24:58;9.00;91.00
43320;DHT22;28914;48.722;9.332;2022-11-20T01:30:17;9.10;91.10
43320;DHT22;28914;48.722;9.332;2022-11-20T01:35:36;9.20;91.00
43320;DHT22;28914;48.722;9.332;2022-11-20T01:40:55;9.30;91.00
43320;DHT22;28914;48.722;9.332;2022-11-20T01:46:17;9.30;90.90
43320;DHT22;28914;48.722;9.332;2022-11-20T01:51:51;9.40;90.90
43320;DHT22;28914;48.722;9.332;2022-11-20T01:57:12;9.50;90.90
43320;DHT22;28914;48.722;9.332;2022-11-20T02:02:33;9.50;90.60
43320;DHT22;28914;48.722;9.332;2022-11-20T02:07:54;9.50;90.60
43320;DHT22;28914;48.722;9.332;2022-11-20T02:13:15;9.50;90.50
43320;DHT22;28914;48.722;9.332;2022-11-20T02:18:55;9.40;90.40
43320;DHT22;28914;48.722;9.332;2022-11-20T02:24:18;9.40;90.40
43320;DHT22;28914;48.722;9.332;2022-11-20T02:29:46;9.30;90.40
43320;DHT22;28914;48.722;9.332;2022-11-20T02:40:37;9.20;90.50
43320;DHT22;28914;48.722;9.332;2022-11-20T02:45:57;9.20;90.90
43320;DHT22;28914;48.722;9.332;2022-11-20T02:51:16;9.10;90.60
43320;DHT22;28914;48.722;9.332;2022-11-20T02:56:38;9.10;90.80
43320;DHT22;28914;48.722;9.332;2022-11-20T03:01:57;9.10;90.80
43320;DHT22;28914;48.722;9.332;2022-11-20T03:07:16;9.10;90.90
43320;DHT22;28914;48.722;9.332;2022-11-20T03:12:36;9.10;90.90
43320;DHT22;28914;48.722;9.332;2022-11-20T03:17:55;9.10;90.80
43320;DHT22;28914;48.722;9.332;2022-11-20T03:23:15;9.10;90.80
43320;DHT22;28914;48.722;9.332;2022-11-20T03:28:35;9.00;90.70
43320;DHT22;28914;48.722;9.332;2022-11-20T03:33:56;9.00;90.80
43320;DHT22;28914;48.722;9.332;2022-11-20T03:39:15;9.00;90.90
43320;DHT22;28914;48.722;9.332;2022-11-20T03:44:34;9.00;91.10
43320;DHT22;28914;48.722;9.332;2022-11-20T03:49:53;9.00;91.00
43320;DHT22;28914;48.722;9.332;2022-11-20T03:55:13;9.10;91.10
43320;DHT22;28914;48.722;9.332;2022-11-20T04:00:32;9.20;90.80
43320;DHT22;28914;48.722;9.332;2022-11-20T04:05:51;9.20;90.70
43320;DHT22;28914;48.722;9.332;2022-11-20T04:11:19;9.20;90.50
43320;DHT22;28914;48.722;9.332;2022-11-20T04:16:38;9.10;90.50
43320;DHT22;28914;48.722;9.332;2022-11-20T04:21:58;9.10;90.50
43320;DHT22;28914;48.722;9.332;2022-11-20T04:27:17;9.00;90.60
43320;DHT22;28914;48.722;9.332;2022-11-20T04:32:36;9.00;90.70
43320;DHT22;28914;48.722;9.332;2022-11-20T04:37:55;9.00;90.80
43320;DHT22;28914;48.722;9.332;2022-11-20T04:43:14;9.00;90.70
43320;DHT22;28914;48.722;9.332;2022-11-20T04:48:34;9.00;90.70
43320;DHT22;28914;48.722;9.332;2022-11-20T04:53:53;9.10;90.60
43320;DHT22;28914;48.722;9.332;2022-11-20T04:59:13;9.10;90.40
43320;DHT22;28914;48.722;9.332;2022-11-20T05:04:32;9.10;90.40
43320;DHT22;28914;48.722;9.332;2022-11-20T05:09:51;9.10;90.40
43320;DHT22;28914;48.722;9.332;2022-11-20T05:15:10;9.20;90.40
43320;DHT22;28914;48.722;9.332;2022-11-20T05:20:30;9.30;90.40
43320;DHT22;28914;48.722;9.332;2022-11-20T05:25:52;9.30;90.40
43320;DHT22;28914;48.722;9.332;2022-11-20T05:31:17;9.30;90.40
43320;DHT22;28914;48.722;9.332;2022-11-20T05:36:37;9.40;90.50
43320;DHT22;28914;48.722;9.332;2022-11-20T05:41:56;9.40;90.40
43320;DHT22;28914;48.722;9.332;2022-11-20T05:47:34;9.50;90.10
43320;DHT22;28914;48.722;9.332;2022-11-20T05:52:53;9.60;90.20
43320;DHT22;28914;48.722;9.332;2022-11-20T05:58:13;9.60;90.10
43320;DHT22;28914;48.722;9.332;2022-11-20T06:03:32;9.70;90.20
43320;DHT22;28914;48.722;9.332;2022-11-20T06:08:52;9.70;90.10
43320;DHT22;28914;48.722;9.332;2022-11-20T06:14:11;9.80;89.80
43320;DHT22;28914;48.722;9.332;2022-11-20T06:19:30;9.80;89.70
43320;DHT22;28914;48.722;9.332;2022-11-20T06:24:49;9.80;89.20
43320;DHT22;28914;48.722;9.332;2022-11-20T06:30:09;9.80;89.00
43320;DHT22;28914;48.722;9.332;2022-11-20T06:35:28;9.90;89.20
43320;DHT22;28914;48.722;9.332;2022-11-20T06:40:48;9.90;89.10
43320;DHT22;28914;48.722;9.332;2022-11-20T06:46:09;9.90;89.20
43320;DHT22;28914;48.722;9.332;2022-11-20T06:51:28;9.90;89.50
43320;DHT22;28914;48.722;9.332;2022-11-20T06:56:48;9.80;89.70
43320;DHT22;28914;48.722;9.332;2022-11-20T07:02:11;9.80;89.50
43320;DHT22;28914;48.722;9.332;2022-11-20T07:07:31;9.90;89.40
43320;DHT22;28914;48.722;9.332;2022-11-20T07:12:51;9.90;89.40
43320;DHT22;28914;48.722;9.332;2022-11-20T07:18:11;9.90;89.40
43320;DHT22;28914;48.722;9.332;2022-11-20T07:23:30;9.90;89.50
43320;DHT22;28914;48.722;9.332;2022-11-20T07:28:50;9.90;89.50
43320;DHT22;28914;48.722;9.332;2022-11-20T07:34:09;9.90;89.60
43320;DHT22;28914;48.722;9.332;2022-11-20T07:39:28;10.00;89.80
43320;DHT22;28914;48.722;9.332;2022-11-20T07:44:47;10.00;89.70
43320;DHT22;28914;48.722;9.332;2022-11-20T07:50:07;10.20;89.80
43320;DHT22;28914;48.722;9.332;2022-11-20T07:55:26;10.30;90.00
43320;DHT22;28914;48.722;9.332;2022-11-20T08:00:46;10.50;89.40
43320;DHT22;28914;48.722;9.332;2022-11-20T08:06:05;10.60;88.60
43320;DHT22;28914;48.722;9.332;2022-11-20T08:11:25;10.80;88.70
43320;DHT22;28914;48.722;9.332;2022-11-20T08:17:03;10.90;88.00
43320;DHT22;28914;48.722;9.332;2022-11-20T08:22:22;11.10;87.90
43320;DHT22;28914;48.722;9.332;2022-11-20T08:27:41;11.10;86.70
43320;DHT22;28914;48.722;9.332;2022-11-20T08:33:06;11.20;86.50
43320;DHT22;28914;48.722;9.332;2022-11-20T08:38:27;11.20;86.10
43320;DHT22;28914;48.722;9.332;2022-11-20T08:43:46;11.30;86.20
43320;DHT22;28914;48.722;9.332;2022-11-20T08:49:08;11.30;85.40
43320;DHT22;28914;48.722;9.332;2022-11-20T08:54:28;11.30;85.70
43320;DHT22;28914;48.722;9.332;2022-11-20T08:59:48;11.30;85.60
43320;DHT22;28914;48.722;9.332;2022-11-20T09:05:07;11.30;83.20
43320;DHT22;28914;48.722;9.332;2022-11-20T09:10:27;11.20;84.20
43320;DHT22;28914;48.722;9.332;2022-11-20T09:15:47;11.20;85.20
43320;DHT22;28914;48.722;9.332;2022-11-20T09:21:09;11.30;85.10
43320;DHT22;28914;48.722;9.332;2022-11-20T09:26:32;11.40;85.10
43320;DHT22;28914;48.722;9.332;2022-11-20T09:31:51;11.50;85.40
43320;DHT22;28914;48.722;9.332;2022-11-20T09:37:10;11.60;84.70
43320;DHT22;28914;48.722;9.332;2022-11-20T09:59:46;11.60;83.30
43320;DHT22;28914;48.722;9.332;2022-11-20T10:05:25;11.60;83.70
43320;DHT22;28914;48.722;9.332;2022-11-20T10:11:17;11.70;83.90
43320;DHT22;28914;48.722;9.332;2022-11-20T10:33:53;12.00;83.90
43320;DHT22;28914;48.722;9.332;2022-11-20T10:39:35;12.00;83.50
43320;DHT22;28914;48.722;9.332;2022-11-20T10:45:09;12.00;83.50
43320;DHT22;28914;48.722;9.332;2022-11-20T10:50:30;12.00;83.00
43320;DHT22;28914;48.722;9.332;2022-11-20T10:55:55;11.90;83.40
43320;DHT22;28914;48.722;9.332;2022-11-20T11:01:18;11.90;83.80
43320;DHT22;28914;48.722;9.332;2022-11-20T11:06:45;11.80;84.00
43320;DHT22;28914;48.722;9.332;2022-11-20T11:12:08;11.70;84.10
43320;DHT22;28914;48.722;9.332;2022-11-20T11:17:31;11.60;84.60
43320;DHT22;28914;48.722;9.332;2022-11-20T11:22:52;11.60;84.90
43320;DHT22;28914;48.722;9.332;2022-11-20T11:33:36;11.60;85.30
43320;DHT22;28914;48.722;9.332;2022-11-20T11:38:55;11.60;85.80
43320;DHT22;28914;48.722;9.332;2022-11-20T11:44:18;11.70;86.40
43320;DHT22;28914;48.722;9.332;2022-11-20T11:55:50;12.20;86.90
43320;DHT22;28914;48.722;9.332;2022-11-20T12:01:49;12.50;87.30
43320;DHT22;28914;48.722;9.332;2022-11-20T12:12:42;13.00;85.00
43320;DHT22;28914;48.722;9.332;2022-11-20T12:18:09;13.30;84.80
43320;DHT22;28914;48.722;9.332;2022-11-20T12:46:22;13.60;79.80
43320;DHT22;28914;48.722;9.332;2022-11-20T12:52:13;13.60;78.80
43320;DHT22;28914;48.722;9.332;2022-11-20T13:08:54;13.60;77.30
43320;DHT22;28914;48.722;9.332;2022-11-20T13:14:35;13.50;77.30
43320;DHT22;28914;48.722;9.332;2022-11-20T13:19:57;13.50;76.60
43320;DHT22;28914;48.722;9.332;2022-11-20T13:25:23;13.60;77.60
43320;DHT22;28914;48.722;9.332;2022-11-20T13:30:51;13.60;76.60
43320;DHT22;28914;48.722;9.332;2022-11-20T13:36:25;13.50;76.10
43320;DHT22;28914;48.722;9.332;2022-11-20T13:41:55;13.50;75.80
43320;DHT22;28914;48.722;9.332;2022-11-20T13:47:24;13.50;75.60
43320;DHT22;28914;48.722;9.332;2022-11-20T13:52:55;13.50;75.70
43320;DHT22;28914;48.722;9.332;2022-11-20T14:03:53;13.40;73.10
43320;DHT22;28914;48.722;9.332;2022-11-20T14:09:24;13.20;73.00
43320;DHT22;28914;48.722;9.332;2022-11-20T14:14:52;13.10;72.70
43320;DHT22;28914;48.722;9.332;2022-11-20T14:20:14;12.90;72.50
43320;DHT22;28914;48.722;9.332;2022-11-20T14:25:34;12.80;72.50
43320;DHT22;28914;48.722;9.332;2022-11-20T14:30:54;12.70;72.10
43320;DHT22;28914;48.722;9.332;2022-11-20T14:36:19;12.50;72.20
43320;DHT22;28914;48.722;9.332;2022-11-20T14:41:50;12.30;73.10
43320;DHT22;28914;48.722;9.332;2022-11-20T14:47:12;12.10;73.00
43320;DHT22;28914;48.722;9.332;2022-11-20T14:52:32;12.00;73.60
43320;DHT22;28914;48.722;9.332;2022-11-20T14:57:55;11.90;74.20
43320;DHT22;28914;48.722;9.332;2022-11-20T15:03:16;11.80;74.60
43320;DHT22;28914;48.722;9.332;2022-11-20T15:08:35;11.70;74.90
43320;DHT22;28914;48.722;9.332;2022-11-20T15:13:55;11.60;75.20
43320;DHT22;28914;48.722;9.332;2022-11-20T15:19:19;11.50;75.80
43320;DHT22;28914;48.722;9.332;2022-11-20T15:24:38;11.40;76.00
43320;DHT22;28914;48.722;9.332;2022-11-20T15:29:57;11.30;76.80
43320;DHT22;28914;48.722;9.332;2022-11-20T15:35:17;11.30;77.00
43320;DHT22;28914;48.722;9.332;2022-11-20T15:40:36;11.20;77.20
43320;DHT22;28914;48.722;9.332;2022-11-20T15:45:59;11.10;77.20
43320;DHT22;28914;48.722;9.332;2022-11-20T15:51:48;11.10;77.20
43320;DHT22;28914;48.722;9.332;2022-11-20T15:57:06;10.90;77.50
43320;DHT22;28914;48.722;9.332;2022-11-20T16:02:26;10.80;77.90
43320;DHT22;28914;48.722;9.332;2022-11-20T16:07:45;10.60;78.20
43320;DHT22;28914;48.722;9.332;2022-11-20T16:13:09;10.50;78.50
43320;DHT22;28914;48.722;9.332;2022-11-20T16:18:49;10.20;78.90
43320;DHT22;28914;48.722;9.332;2022-11-20T16:24:10;10.10;79.70
43320;DHT22;28914;48.722;9.332;2022-11-20T16:29:31;9.90;80.10
43320;DHT22;28914;48.722;9.332;2022-11-20T16:34:50;9.80;80.70
43320;DHT22;28914;48.722;9.332;2022-11-20T16:40:10;9.80;81.10
43320;DHT22;28914;48.722;9.332;2022-11-20T16:45:30;9.80;81.50
43320;DHT22;28914;48.722;9.332;2022-11-20T16:50:51;9.80;82.00
43320;DHT22;28914;48.722;9.332;2022-11-20T16:56:12;9.80;82.30
43320;DHT22;28914;48.722;9.332;2022-11-20T17:01:31;9.90;82.50
43320;DHT22;28914;48.722;9.332;2022-11-20T17:06:50;9.90;82.60
43320;DHT22;28914;48.722;9.332;2022-11-20T17:12:09;9.90;82.80
43320;DHT22;28914;48.722;9.332;2022-11-20T17:17:29;9.90;83.10
43320;DHT22;28914;48.722;9.332;2022-11-20T17:22:48;9.90;83.20
43320;DHT22;28914;48.722;9.332;2022-11-20T17:28:07;10.00;83.40
43320;DHT22;28914;48.722;9.332;2022-11-20T17:33:27;9.90;83.40
43320;DHT22;28914;48.722;9.332;2022-11-20T17:38:47;9.90;83.60
43320;DHT22;28914;48.722;9.332;2022-11-20T17:44:09;9.90;83.70
43320;DHT22;28914;48.722;9.332;2022-11-20T17:49:28;9.90;83.90
43320;DHT22;28914;48.722;9.332;2022-11-20T17:54:47;9.80;84.00
43320;DHT22;28914;48.722;9.332;2022-11-20T18:00:07;9.80;84.10
43320;DHT22;28914;48.722;9.332;2022-11-20T18:05:28;9.80;84.20
43320;DHT22;28914;48.722;9.332;2022-11-20T18:10:47;9.70;84.30
43320;DHT22;28914;48.722;9.332;2022-11-20T18:16:06;9.70;84.40
43320;DHT22;28914;48.722;9.332;2022-11-20T18:21:27;9.70;84.60
43320;DHT22;28914;48.722;9.332;2022-11-20T18:26:47;9.80;84.70
43320;DHT22;28914;48.722;9.332;2022-11-20T18:32:06;9.80;84.90
43320;DHT22;28914;48.722;9.332;2022-11-20T18:37:25;9.80;85.00
43320;DHT22;28914;48.722;9.332;2022-11-20T18:42:44;9.90;85.20
43320;DHT22;28914;48.722;9.332;2022-11-20T18:48:22;9.90;85.30
43320;DHT22;28914;48.722;9.332;2022-11-20T18:53:42;9.90;85.30
43320;DHT22;28914;48.722;9.332;2022-11-20T18:59:02;9.90;85.20
43320;DHT22;28914;48.722;9.332;2022-11-20T19:04:22;10.00;85.60
43320;DHT22;28914;48.722;9.332;2022-11-20T19:09:43;10.00;85.60
43320;DHT22;28914;48.722;9.332;2022-11-20T19:15:03;10.00;85.50
43320;DHT22;28914;48.722;9.332;2022-11-20T19:20:23;10.00;85.40
43320;DHT22;28914;48.722;9.332;2022-11-20T19:25:42;10.00;84.60
43320;DHT22;28914;48.722;9.332;2022-11-20T19:31:06;10.00;83.50
43320;DHT22;28914;48.722;9.332;2022-11-20T19:36:34;10.00;83.30
43320;DHT22;28914;48.722;9.332;2022-11-20T19:41:53;10.00;83.70
43320;DHT22;28914;48.722;9.332;2022-11-20T19:47:13;10.00;83.50
43320;DHT22;28914;48.722;9.332;2022-11-20T19:52:32;10.00;83.60
43320;DHT22;28914;48.722;9.332;2022-11-20T19:57:52;10.00;83.50
43320;DHT22;28914;48.722;9.332;2022-11-20T20:03:11;10.00;83.40
43320;DHT22;28914;48.722;9.332;2022-11-20T20:08:31;10.00;83.40
43320;DHT22;28914;48.722;9.332;2022-11-20T20:13:50;10.00;83.50
43320;DHT22;28914;48.722;9.332;2022-11-20T20:19:11;10.00;83.50
43320;DHT22;28914;48.722;9.332;2022-11-20T20:24:31;10.00;83.00
43320;DHT22;28914;48.722;9.332;2022-11-20T20:29:50;10.00;82.70
43320;DHT22;28914;48.722;9.332;2022-11-20T20:35:09;10.00;82.60
43320;DHT22;28914;48.722;9.332;2022-11-20T20:40:28;9.90;81.30
43320;DHT22;28914;48.722;9.332;2022-11-20T20:45:49;9.80;82.30
43320;DHT22;28914;48.722;9.332;2022-11-20T20:51:08;9.80;81.70
43320;DHT22;28914;48.722;9.332;2022-11-20T20:56:27;9.80;82.10
43320;DHT22;28914;48.722;9.332;2022-11-20T21:01:46;9.80;82.20
43320;DHT22;28914;48.722;9.332;2022-11-20T21:07:06;9.80;82.00
43320;DHT22;28914;48.722;9.332;2022-11-20T21:12:25;9.80;81.80
43320;DHT22;28914;48.722;9.332;2022-11-20T21:17:44;9.80;81.80
43320;DHT22;28914;48.722;9.332;2022-11-20T21:23:07;9.70;82.00
43320;DHT22;28914;48.722;9.332;2022-11-20T21:28:27;9.70;82.10
43320;DHT22;28914;48.722;9.332;2022-11-20T21:33:48;9.70;82.30
43320;DHT22;28914;48.722;9.332;2022-11-20T21:39:09;9.70;81.90
43320;DHT22;28914;48.722;9.332;2022-11-20T21:44:28;9.70;82.00
43320;DHT22;28914;48.722;9.332;2022-11-20T21:49:48;9.70;82.00
43320;DHT22;28914;48.722;9.332;2022-11-20T21:55:07;9.60;81.60
43320;DHT22;28914;48.722;9.332;2022-11-20T22:00:26;9.50;81.60
43320;DHT22;28914;48.722;9.332;2022-11-20T22:05:56;9.40;81.50
43320;DHT22;28914;48.722;9.332;2022-11-20T22:11:18;9.30;81.80
43320;DHT22;28914;48.722;9.332;2022-11-20T22:16:37;9.20;82.30
43320;DHT22;28914;48.722;9.332;2022-11-20T22:21:56;9.20;83.50
43320;DHT22;28914;48.722;9.332;2022-11-20T22:27:15;9.20;83.10
43320;DHT22;28914;48.722;9.332;2022-11-20T22:32:35;9.20;83.20
43320;DHT22;28914;48.722;9.332;2022-11-20T22:37:54;9.30;82.90
43320;DHT22;28914;48.722;9.332;2022-11-20T22:43:13;9.30;83.20
43320;DHT22;28914;48.722;9.332;2022-11-20T22:48:33;9.30;83.30
43320;DHT22;28914;48.722;9.332;2022-11-20T22:53:53;9.40;83.50
43320;DHT22;28914;48.722;9.332;2022-11-20T22:59:12;9.40;83.60
43320;DHT22;28914;48.722;9.332;2022-11-20T23:04:31;9.40;83.50
43320;DHT22;28914;48.722;9.332;2022-11-20T23:09:50;9.40;83.40
43320;DHT22;28914;48.722;9.332;2022-11-20T23:15:10;9.40;83.20
43320;DHT22;28914;48.722;9.332;2022-11-20T23:20:29;9.40;83.10
43320;DHT22;28914;48.722;9.332;2022-11-20T23:25:48;9.40;83.20
43320;DHT22;28914;48.722;9.332;2022-11-20T23:31:08;9.30;83.30
43320;DHT22;28914;48.722;9.332;2022-11-20T23:36:28;9.30;83.60
43320;DHT22;28914;48.722;9.332;2022-11-20T23:41:47;9.40;83.70
43320;DHT22;28914;48.722;9.332;2022-11-20T23:47:06;9.40;83.30
43320;DHT22;28914;48.722;9.332;2022-11-20T23:52:25;9.40;83.30
43320;DHT22;28914;48.722;9.332;2022-11-20T23:57:45;9.40;83.60
